SBCJ/CKS METAR and TAF weather

Enter ICAO airport designator
Station Type Date Time Source
SBCJ METAR 2021/09/25 13:00 UTC NOAA

SBCJ 251300Z 05004KT 9999 SCT007 24/21 Q1019


Station Type Date Time Source
SBCJ Decoded METAR 2021/09/25 13:00 UTC NOAA

Carajas / Maraba, Brazil (SBCJ) 06-07S 050-00W
Sep 25, 2021 - 09:00 AM EDT / 2021.09.25 1300 UTC
Wind: from the NE (050 degrees) at 5 MPH (4 KT):0
Visibility: greater than 7 mile(s):0
Sky conditions: partly cloudy
Temperature: 75 F (24 C)
Dew Point: 69 F (21 C)
Relative Humidity: 83%
Pressure (altimeter): 30.09 in. Hg (1019 hPa)
ob: SBCJ 251300Z 05004KT 9999 SCT007 24/21 Q1019
cycle: 13

Station Type Date Time Source
SBCJ TAF 2021/09/25 12:33 UTC NOAA

TAF TAF SBCJ 250929Z 2512/2524 03005KT 7000 BKN007 TX29/2518Z TN24/2524Z
BECMG 2513/2516 06005KT BKN023
BECMG 2517/2520 21005KT FEW023
RMK PHC

Example: see airport list